sensor_id;sensor_type;location;lat;lon;timestamp;temperature;humidity
59857;DHT22;45733;52.668;6.860;2023-08-01T00:02:08;17.00;99.90
59857;DHT22;45733;52.668;6.860;2023-08-01T00:04:37;16.90;99.90
59857;DHT22;45733;52.668;6.860;2023-08-01T00:07:08;16.90;99.90
59857;DHT22;45733;52.668;6.860;2023-08-01T00:09:33;17.00;99.90
59857;DHT22;45733;52.668;6.860;2023-08-01T00:12:08;17.50;99.90
59857;DHT22;45733;52.668;6.860;2023-08-01T00:14:36;17.10;99.90
59857;DHT22;45733;52.668;6.860;2023-08-01T00:17:02;17.10;99.90
59857;DHT22;45733;52.668;6.860;2023-08-01T00:19:31;17.10;99.90
59857;DHT22;45733;52.668;6.860;2023-08-01T00:21:59;17.60;99.90
59857;DHT22;45733;52.668;6.860;2023-08-01T00:24:25;17.60;99.90
59857;DHT22;45733;52.668;6.860;2023-08-01T00:30:01;17.20;99.90
59857;DHT22;45733;52.668;6.860;2023-08-01T00:32:30;17.70;99.90
59857;DHT22;45733;52.668;6.860;2023-08-01T00:35:25;17.60;99.90
59857;DHT22;45733;52.668;6.860;2023-08-01T00:37:50;16.80;99.90
59857;DHT22;45733;52.668;6.860;2023-08-01T00:40:22;16.90;99.90
59857;DHT22;45733;52.668;6.860;2023-08-01T00:43:18;16.80;99.90
59857;DHT22;45733;52.668;6.860;2023-08-01T00:48:48;16.90;99.90
59857;DHT22;45733;52.668;6.860;2023-08-01T00:51:15;17.00;99.90
59857;DHT22;45733;52.668;6.860;2023-08-01T00:54:11;16.90;99.90
59857;DHT22;45733;52.668;6.860;2023-08-01T00:56:37;17.00;99.90
59857;DHT22;45733;52.668;6.860;2023-08-01T00:59:12;16.90;99.90
59857;DHT22;45733;52.668;6.860;2023-08-01T01:01:48;17.40;99.90
59857;DHT22;45733;52.668;6.860;2023-08-01T01:04:14;17.20;99.90
59857;DHT22;45733;52.668;6.860;2023-08-01T01:07:15;16.90;99.90
59857;DHT22;45733;52.668;6.860;2023-08-01T01:09:58;17.50;99.90
59857;DHT22;45733;52.668;6.860;2023-08-01T01:12:34;17.60;99.90
59857;DHT22;45733;52.668;6.860;2023-08-01T01:15:22;17.60;99.90
59857;DHT22;45733;52.668;6.860;2023-08-01T01:18:00;17.00;99.90
59857;DHT22;45733;52.668;6.860;2023-08-01T01:20:55;17.10;99.90
59857;DHT22;45733;52.668;6.860;2023-08-01T01:23:24;16.80;99.90
59857;DHT22;45733;52.668;6.860;2023-08-01T01:25:51;17.00;99.90
59857;DHT22;45733;52.668;6.860;2023-08-01T01:28:39;17.60;99.90
59857;DHT22;45733;52.668;6.860;2023-08-01T01:31:16;17.30;99.90
59857;DHT22;45733;52.668;6.860;2023-08-01T01:33:50;16.90;99.90
59857;DHT22;45733;52.668;6.860;2023-08-01T01:36:16;17.20;99.90
59857;DHT22;45733;52.668;6.860;2023-08-01T01:38:42;16.90;99.90
59857;DHT22;45733;52.668;6.860;2023-08-01T01:41:07;17.20;99.90
59857;DHT22;45733;52.668;6.860;2023-08-01T01:43:33;17.40;99.90
59857;DHT22;45733;52.668;6.860;2023-08-01T01:46:00;17.40;99.90
59857;DHT22;45733;52.668;6.860;2023-08-01T01:48:25;17.40;99.90
59857;DHT22;45733;52.668;6.860;2023-08-01T01:50:51;17.40;99.90
59857;DHT22;45733;52.668;6.860;2023-08-01T01:53:17;17.30;99.90
59857;DHT22;45733;52.668;6.860;2023-08-01T01:55:43;17.20;99.90
59857;DHT22;45733;52.668;6.860;2023-08-01T01:58:09;16.80;99.90
59857;DHT22;45733;52.668;6.860;2023-08-01T02:00:34;16.80;99.90
59857;DHT22;45733;52.668;6.860;2023-08-01T02:03:00;17.00;99.90
59857;DHT22;45733;52.668;6.860;2023-08-01T02:05:28;17.10;99.90
59857;DHT22;45733;52.668;6.860;2023-08-01T02:07:54;17.30;99.90
59857;DHT22;45733;52.668;6.860;2023-08-01T02:10:20;17.10;99.90
59857;DHT22;45733;52.668;6.860;2023-08-01T02:12:46;16.60;99.90
59857;DHT22;45733;52.668;6.860;2023-08-01T02:15:11;16.70;99.90
59857;DHT22;45733;52.668;6.860;2023-08-01T02:17:42;17.20;99.90
59857;DHT22;45733;52.668;6.860;2023-08-01T02:20:08;16.60;99.90
59857;DHT22;45733;52.668;6.860;2023-08-01T02:22:34;16.90;99.90
59857;DHT22;45733;52.668;6.860;2023-08-01T02:25:00;16.50;99.90
59857;DHT22;45733;52.668;6.860;2023-08-01T02:27:30;16.90;99.90
59857;DHT22;45733;52.668;6.860;2023-08-01T02:30:02;16.80;99.90
59857;DHT22;45733;52.668;6.860;2023-08-01T02:32:28;17.00;99.90
59857;DHT22;45733;52.668;6.860;2023-08-01T02:34:53;16.40;99.90
59857;DHT22;45733;52.668;6.860;2023-08-01T02:37:27;16.80;99.90
59857;DHT22;45733;52.668;6.860;2023-08-01T02:39:59;16.60;99.90
59857;DHT22;45733;52.668;6.860;2023-08-01T02:42:34;16.70;99.90
59857;DHT22;45733;52.668;6.860;2023-08-01T02:45:00;16.40;99.90
59857;DHT22;45733;52.668;6.860;2023-08-01T02:47:28;16.10;99.90
59857;DHT22;45733;52.668;6.860;2023-08-01T02:50:00;16.30;99.90
59857;DHT22;45733;52.668;6.860;2023-08-01T02:52:25;16.10;99.90
59857;DHT22;45733;52.668;6.860;2023-08-01T02:54:51;16.70;99.90
59857;DHT22;45733;52.668;6.860;2023-08-01T02:57:19;16.70;99.90
59857;DHT22;45733;52.668;6.860;2023-08-01T03:00:19;16.70;99.90
59857;DHT22;45733;52.668;6.860;2023-08-01T03:02:45;16.70;99.90
59857;DHT22;45733;52.668;6.860;2023-08-01T03:08:21;16.50;99.90
59857;DHT22;45733;52.668;6.860;2023-08-01T03:10:50;16.10;99.90
59857;DHT22;45733;52.668;6.860;2023-08-01T03:13:25;16.60;99.90
59857;DHT22;45733;52.668;6.860;2023-08-01T03:15:51;16.60;99.90
59857;DHT22;45733;52.668;6.860;2023-08-01T03:18:17;16.70;99.90
59857;DHT22;45733;52.668;6.860;2023-08-01T03:20:45;16.60;99.90
59857;DHT22;45733;52.668;6.860;2023-08-01T03:23:14;16.70;99.90
59857;DHT22;45733;52.668;6.860;2023-08-01T03:25:42;16.60;99.90
59857;DHT22;45733;52.668;6.860;2023-08-01T03:28:08;16.20;99.90
59857;DHT22;45733;52.668;6.860;2023-08-01T03:30:35;16.00;99.90
59857;DHT22;45733;52.668;6.860;2023-08-01T03:33:04;16.50;99.90
59857;DHT22;45733;52.668;6.860;2023-08-01T03:35:35;16.30;99.90
59857;DHT22;45733;52.668;6.860;2023-08-01T03:38:01;16.40;99.90
59857;DHT22;45733;52.668;6.860;2023-08-01T03:40:55;16.50;99.90
59857;DHT22;45733;52.668;6.860;2023-08-01T03:43:47;16.00;99.90
59857;DHT22;45733;52.668;6.860;2023-08-01T03:46:13;16.20;99.90
59857;DHT22;45733;52.668;6.860;2023-08-01T03:51:34;15.90;99.90
59857;DHT22;45733;52.668;6.860;2023-08-01T03:54:00;16.40;99.90
59857;DHT22;45733;52.668;6.860;2023-08-01T03:56:26;16.20;99.90
59857;DHT22;45733;52.668;6.860;2023-08-01T03:58:53;16.10;99.90
59857;DHT22;45733;52.668;6.860;2023-08-01T04:01:21;16.00;99.90
59857;DHT22;45733;52.668;6.860;2023-08-01T04:03:47;15.80;99.90
59857;DHT22;45733;52.668;6.860;2023-08-01T04:06:13;16.10;99.90
59857;DHT22;45733;52.668;6.860;2023-08-01T04:08:40;15.80;99.90
59857;DHT22;45733;52.668;6.860;2023-08-01T04:11:13;16.30;99.90
59857;DHT22;45733;52.668;6.860;2023-08-01T04:13:42;15.90;99.90
59857;DHT22;45733;52.668;6.860;2023-08-01T04:16:08;15.90;99.90
59857;DHT22;45733;52.668;6.860;2023-08-01T04:18:33;16.30;99.90
59857;DHT22;45733;52.668;6.860;2023-08-01T04:20:59;16.30;99.90
59857;DHT22;45733;52.668;6.860;2023-08-01T04:23:25;16.30;99.90
59857;DHT22;45733;52.668;6.860;2023-08-01T04:25:50;15.90;99.90
59857;DHT22;45733;52.668;6.860;2023-08-01T04:28:16;15.90;99.90
59857;DHT22;45733;52.668;6.860;2023-08-01T04:30:42;16.00;99.90
59857;DHT22;45733;52.668;6.860;2023-08-01T04:33:13;15.90;99.90
59857;DHT22;45733;52.668;6.860;2023-08-01T04:35:39;16.10;99.90
59857;DHT22;45733;52.668;6.860;2023-08-01T04:38:04;15.90;99.90
59857;DHT22;45733;52.668;6.860;2023-08-01T04:40:30;15.80;99.90
59857;DHT22;45733;52.668;6.860;2023-08-01T04:42:56;16.20;99.90
59857;DHT22;45733;52.668;6.860;2023-08-01T04:45:21;15.90;99.90
59857;DHT22;45733;52.668;6.860;2023-08-01T04:47:47;15.90;99.90
59857;DHT22;45733;52.668;6.860;2023-08-01T04:50:12;16.30;99.90
59857;DHT22;45733;52.668;6.860;2023-08-01T04:52:38;15.80;99.90
59857;DHT22;45733;52.668;6.860;2023-08-01T04:55:04;15.90;99.90
59857;DHT22;45733;52.668;6.860;2023-08-01T04:57:30;16.30;99.90
59857;DHT22;45733;52.668;6.860;2023-08-01T04:59:56;15.90;99.90
59857;DHT22;45733;52.668;6.860;2023-08-01T05:02:22;16.20;99.90
59857;DHT22;45733;52.668;6.860;2023-08-01T05:04:47;16.00;99.90
59857;DHT22;45733;52.668;6.860;2023-08-01T05:07:13;16.20;99.90
59857;DHT22;45733;52.668;6.860;2023-08-01T05:09:39;16.20;99.90
59857;DHT22;45733;52.668;6.860;2023-08-01T05:12:05;16.00;99.90
59857;DHT22;45733;52.668;6.860;2023-08-01T05:14:30;16.50;99.90
59857;DHT22;45733;52.668;6.860;2023-08-01T05:16:56;16.30;99.90
59857;DHT22;45733;52.668;6.860;2023-08-01T05:19:22;16.60;99.90
59857;DHT22;45733;52.668;6.860;2023-08-01T05:21:47;16.10;99.90
59857;DHT22;45733;52.668;6.860;2023-08-01T05:24:14;16.20;99.90
59857;DHT22;45733;52.668;6.860;2023-08-01T05:26:39;16.50;99.90
59857;DHT22;45733;52.668;6.860;2023-08-01T05:29:05;16.10;99.90
59857;DHT22;45733;52.668;6.860;2023-08-01T05:31:31;16.60;99.90
59857;DHT22;45733;52.668;6.860;2023-08-01T05:33:56;16.70;99.90
59857;DHT22;45733;52.668;6.860;2023-08-01T05:36:22;16.90;99.90
59857;DHT22;45733;52.668;6.860;2023-08-01T05:38:47;16.90;99.90
59857;DHT22;45733;52.668;6.860;2023-08-01T05:41:13;16.30;99.90
59857;DHT22;45733;52.668;6.860;2023-08-01T05:43:39;16.30;99.90
59857;DHT22;45733;52.668;6.860;2023-08-01T05:46:04;16.70;99.90
59857;DHT22;45733;52.668;6.860;2023-08-01T05:48:30;16.10;99.90
59857;DHT22;45733;52.668;6.860;2023-08-01T05:50:56;16.10;99.90
59857;DHT22;45733;52.668;6.860;2023-08-01T05:53:22;16.10;99.90
59857;DHT22;45733;52.668;6.860;2023-08-01T05:55:47;16.40;99.90
59857;DHT22;45733;52.668;6.860;2023-08-01T05:58:13;16.60;99.90
59857;DHT22;45733;52.668;6.860;2023-08-01T06:00:39;16.70;99.90
59857;DHT22;45733;52.668;6.860;2023-08-01T06:03:04;16.20;99.90
59857;DHT22;45733;52.668;6.860;2023-08-01T06:05:30;16.50;99.90
59857;DHT22;45733;52.668;6.860;2023-08-01T06:07:56;16.50;99.90
59857;DHT22;45733;52.668;6.860;2023-08-01T06:10:22;16.80;99.90
59857;DHT22;45733;52.668;6.860;2023-08-01T06:12:47;16.30;99.90
59857;DHT22;45733;52.668;6.860;2023-08-01T06:15:13;16.60;99.90
59857;DHT22;45733;52.668;6.860;2023-08-01T06:17:38;16.20;99.90
59857;DHT22;45733;52.668;6.860;2023-08-01T06:20:05;16.60;99.90
59857;DHT22;45733;52.668;6.860;2023-08-01T06:22:31;16.30;99.90
59857;DHT22;45733;52.668;6.860;2023-08-01T06:24:56;16.60;99.90
59857;DHT22;45733;52.668;6.860;2023-08-01T06:27:22;16.30;99.90
59857;DHT22;45733;52.668;6.860;2023-08-01T06:29:48;16.40;99.90
59857;DHT22;45733;52.668;6.860;2023-08-01T06:32:13;16.50;99.90
59857;DHT22;45733;52.668;6.860;2023-08-01T06:34:39;16.60;99.90
59857;DHT22;45733;52.668;6.860;2023-08-01T06:37:05;16.60;99.90
59857;DHT22;45733;52.668;6.860;2023-08-01T06:39:30;16.10;99.90
59857;DHT22;45733;52.668;6.860;2023-08-01T06:41:56;16.00;99.90
59857;DHT22;45733;52.668;6.860;2023-08-01T06:44:22;16.10;99.90
59857;DHT22;45733;52.668;6.860;2023-08-01T06:46:47;16.70;99.90
59857;DHT22;45733;52.668;6.860;2023-08-01T06:49:15;16.10;99.90
59857;DHT22;45733;52.668;6.860;2023-08-01T06:51:41;16.50;99.90
59857;DHT22;45733;52.668;6.860;2023-08-01T06:54:08;16.60;99.90
59857;DHT22;45733;52.668;6.860;2023-08-01T06:56:34;16.20;99.90
59857;DHT22;45733;52.668;6.860;2023-08-01T06:58:59;16.90;99.90
59857;DHT22;45733;52.668;6.860;2023-08-01T07:01:28;17.00;99.90
59857;DHT22;45733;52.668;6.860;2023-08-01T07:03:53;16.80;99.90
59857;DHT22;45733;52.668;6.860;2023-08-01T07:06:19;16.40;99.90
59857;DHT22;45733;52.668;6.860;2023-08-01T07:08:47;17.00;99.90
59857;DHT22;45733;52.668;6.860;2023-08-01T07:11:13;16.90;99.90
59857;DHT22;45733;52.668;6.860;2023-08-01T07:13:39;16.50;99.90
59857;DHT22;45733;52.668;6.860;2023-08-01T07:16:05;17.00;99.90
59857;DHT22;45733;52.668;6.860;2023-08-01T07:18:57;17.10;99.90
59857;DHT22;45733;52.668;6.860;2023-08-01T07:21:26;17.00;99.90
59857;DHT22;45733;52.668;6.860;2023-08-01T07:23:54;17.10;99.90
59857;DHT22;45733;52.668;6.860;2023-08-01T07:29:42;16.90;99.90
59857;DHT22;45733;52.668;6.860;2023-08-01T07:32:07;16.70;99.90
59857;DHT22;45733;52.668;6.860;2023-08-01T07:34:33;16.70;99.90
59857;DHT22;45733;52.668;6.860;2023-08-01T07:36:59;16.90;99.90
59857;DHT22;45733;52.668;6.860;2023-08-01T07:39:24;17.10;99.90
59857;DHT22;45733;52.668;6.860;2023-08-01T07:41:50;16.70;99.90
59857;DHT22;45733;52.668;6.860;2023-08-01T07:44:15;17.00;99.90
59857;DHT22;45733;52.668;6.860;2023-08-01T07:46:41;17.10;99.90
59857;DHT22;45733;52.668;6.860;2023-08-01T07:49:07;16.80;99.90
59857;DHT22;45733;52.668;6.860;2023-08-01T07:51:33;16.90;99.90
59857;DHT22;45733;52.668;6.860;2023-08-01T07:53:59;16.60;99.90
59857;DHT22;45733;52.668;6.860;2023-08-01T07:56:32;16.70;99.90
59857;DHT22;45733;52.668;6.860;2023-08-01T07:58:58;16.90;99.90
59857;DHT22;45733;52.668;6.860;2023-08-01T08:01:24;16.70;99.90
59857;DHT22;45733;52.668;6.860;2023-08-01T08:03:49;16.60;99.90
59857;DHT22;45733;52.668;6.860;2023-08-01T08:06:15;16.40;99.90
59857;DHT22;45733;52.668;6.860;2023-08-01T08:08:41;16.50;99.90
59857;DHT22;45733;52.668;6.860;2023-08-01T08:11:06;16.40;99.90
59857;DHT22;45733;52.668;6.860;2023-08-01T08:13:32;16.30;99.90
59857;DHT22;45733;52.668;6.860;2023-08-01T08:15:58;16.30;99.90
59857;DHT22;45733;52.668;6.860;2023-08-01T08:18:24;16.80;99.90
59857;DHT22;45733;52.668;6.860;2023-08-01T08:20:50;16.70;99.90
59857;DHT22;45733;52.668;6.860;2023-08-01T08:23:15;16.80;99.90
59857;DHT22;45733;52.668;6.860;2023-08-01T08:25:42;16.90;99.90
59857;DHT22;45733;52.668;6.860;2023-08-01T08:28:12;16.80;99.90
59857;DHT22;45733;52.668;6.860;2023-08-01T08:30:38;17.00;99.90
59857;DHT22;45733;52.668;6.860;2023-08-01T08:33:03;16.80;99.90
59857;DHT22;45733;52.668;6.860;2023-08-01T08:35:33;17.10;99.90
59857;DHT22;45733;52.668;6.860;2023-08-01T08:38:03;16.80;99.90
59857;DHT22;45733;52.668;6.860;2023-08-01T08:40:32;17.20;99.90
59857;DHT22;45733;52.668;6.860;2023-08-01T08:43:01;17.20;99.90
59857;DHT22;45733;52.668;6.860;2023-08-01T08:45:31;16.70;99.90
59857;DHT22;45733;52.668;6.860;2023-08-01T08:48:06;16.70;99.90
59857;DHT22;45733;52.668;6.860;2023-08-01T08:50:35;17.10;99.90
59857;DHT22;45733;52.668;6.860;2023-08-01T08:53:02;17.40;99.90
59857;DHT22;45733;52.668;6.860;2023-08-01T08:55:28;17.60;99.90
59857;DHT22;45733;52.668;6.860;2023-08-01T08:57:55;17.90;99.90
59857;DHT22;45733;52.668;6.860;2023-08-01T09:00:21;17.80;99.90
59857;DHT22;45733;52.668;6.860;2023-08-01T09:02:47;18.00;99.90
59857;DHT22;45733;52.668;6.860;2023-08-01T09:05:13;18.10;99.90
59857;DHT22;45733;52.668;6.860;2023-08-01T09:07:42;18.80;99.90
59857;DHT22;45733;52.668;6.860;2023-08-01T09:10:08;18.80;99.90
59857;DHT22;45733;52.668;6.860;2023-08-01T09:12:37;18.70;99.90
59857;DHT22;45733;52.668;6.860;2023-08-01T09:15:03;18.50;99.90
59857;DHT22;45733;52.668;6.860;2023-08-01T09:17:29;18.50;99.90
59857;DHT22;45733;52.668;6.860;2023-08-01T09:20:07;18.40;99.90
59857;DHT22;45733;52.668;6.860;2023-08-01T09:22:46;18.50;99.90
59857;DHT22;45733;52.668;6.860;2023-08-01T09:25:13;18.20;99.90
59857;DHT22;45733;52.668;6.860;2023-08-01T09:27:38;18.20;99.90
59857;DHT22;45733;52.668;6.860;2023-08-01T09:30:13;18.30;99.90
59857;DHT22;45733;52.668;6.860;2023-08-01T09:32:54;18.30;99.90
59857;DHT22;45733;52.668;6.860;2023-08-01T09:35:23;18.40;99.90
59857;DHT22;45733;52.668;6.860;2023-08-01T09:37:49;18.10;99.90
59857;DHT22;45733;52.668;6.860;2023-08-01T09:40:15;17.90;99.90
59857;DHT22;45733;52.668;6.860;2023-08-01T09:42:45;17.50;99.90
59857;DHT22;45733;52.668;6.860;2023-08-01T09:47:40;17.30;99.90
59857;DHT22;45733;52.668;6.860;2023-08-01T09:50:06;17.30;99.90
59857;DHT22;45733;52.668;6.860;2023-08-01T09:52:33;17.30;99.90
59857;DHT22;45733;52.668;6.860;2023-08-01T09:54:58;17.30;99.90
59857;DHT22;45733;52.668;6.860;2023-08-01T09:57:28;17.60;99.90
59857;DHT22;45733;52.668;6.860;2023-08-01T09:59:56;17.40;99.90
59857;DHT22;45733;52.668;6.860;2023-08-01T10:02:24;17.50;99.90
59857;DHT22;45733;52.668;6.860;2023-08-01T10:04:54;17.20;99.90
59857;DHT22;45733;52.668;6.860;2023-08-01T10:07:24;17.30;99.90
59857;DHT22;45733;52.668;6.860;2023-08-01T10:09:54;17.30;99.90
59857;DHT22;45733;52.668;6.860;2023-08-01T10:12:22;17.60;99.90
59857;DHT22;45733;52.668;6.860;2023-08-01T10:14:52;17.70;99.90
59857;DHT22;45733;52.668;6.860;2023-08-01T10:17:18;17.40;99.90
59857;DHT22;45733;52.668;6.860;2023-08-01T10:19:44;17.70;99.90
59857;DHT22;45733;52.668;6.860;2023-08-01T10:22:12;17.90;99.90
59857;DHT22;45733;52.668;6.860;2023-08-01T10:24:39;17.80;99.90
59857;DHT22;45733;52.668;6.860;2023-08-01T10:27:13;18.10;99.90
59857;DHT22;45733;52.668;6.860;2023-08-01T10:29:39;17.90;99.90
59857;DHT22;45733;52.668;6.860;2023-08-01T10:32:07;18.10;99.90
59857;DHT22;45733;52.668;6.860;2023-08-01T10:34:33;18.40;99.90
59857;DHT22;45733;52.668;6.860;2023-08-01T10:36:59;18.40;99.90
59857;DHT22;45733;52.668;6.860;2023-08-01T10:39:26;18.30;99.90
59857;DHT22;45733;52.668;6.860;2023-08-01T10:42:03;18.50;99.90
59857;DHT22;45733;52.668;6.860;2023-08-01T10:44:30;18.50;99.90
59857;DHT22;45733;52.668;6.860;2023-08-01T10:47:03;18.20;99.90
59857;DHT22;45733;52.668;6.860;2023-08-01T10:49:38;18.30;99.90
59857;DHT22;45733;52.668;6.860;2023-08-01T10:52:21;18.30;99.90
59857;DHT22;45733;52.668;6.860;2023-08-01T10:54:55;18.00;99.90
59857;DHT22;45733;52.668;6.860;2023-08-01T10:57:21;18.10;99.90
59857;DHT22;45733;52.668;6.860;2023-08-01T10:59:47;17.80;99.90
59857;DHT22;45733;52.668;6.860;2023-08-01T11:02:20;18.00;99.90
59857;DHT22;45733;52.668;6.860;2023-08-01T11:05:07;18.20;99.90
59857;DHT22;45733;52.668;6.860;2023-08-01T11:07:34;17.90;99.90
59857;DHT22;45733;52.668;6.860;2023-08-01T11:10:16;18.20;99.90
59857;DHT22;45733;52.668;6.860;2023-08-01T11:12:43;18.10;99.90
59857;DHT22;45733;52.668;6.860;2023-08-01T11:15:11;18.00;99.90
59857;DHT22;45733;52.668;6.860;2023-08-01T11:17:38;18.10;99.90
59857;DHT22;45733;52.668;6.860;2023-08-01T11:20:09;18.00;99.90
59857;DHT22;45733;52.668;6.860;2023-08-01T11:22:35;18.10;99.90
59857;DHT22;45733;52.668;6.860;2023-08-01T11:25:05;18.30;99.90
59857;DHT22;45733;52.668;6.860;2023-08-01T11:27:31;18.60;99.90
59857;DHT22;45733;52.668;6.860;2023-08-01T11:30:07;18.70;99.90
59857;DHT22;45733;52.668;6.860;2023-08-01T11:32:34;18.80;99.90
59857;DHT22;45733;52.668;6.860;2023-08-01T11:35:03;18.80;99.90
59857;DHT22;45733;52.668;6.860;2023-08-01T11:37:29;18.10;99.90
59857;DHT22;45733;52.668;6.860;2023-08-01T11:39:56;18.00;99.90
59857;DHT22;45733;52.668;6.860;2023-08-01T11:42:23;18.00;99.90
59857;DHT22;45733;52.668;6.860;2023-08-01T11:44:49;18.00;99.90
59857;DHT22;45733;52.668;6.860;2023-08-01T11:47:16;17.80;99.90
59857;DHT22;45733;52.668;6.860;2023-08-01T11:49:46;18.00;99.90
59857;DHT22;45733;52.668;6.860;2023-08-01T11:52:25;18.80;99.90
59857;DHT22;45733;52.668;6.860;2023-08-01T11:54:52;19.30;99.90
59857;DHT22;45733;52.668;6.860;2023-08-01T11:57:18;19.80;99.90
59857;DHT22;45733;52.668;6.860;2023-08-01T11:59:55;20.30;99.90
59857;DHT22;45733;52.668;6.860;2023-08-01T12:04:48;20.60;99.90
59857;DHT22;45733;52.668;6.860;2023-08-01T12:07:16;20.60;99.90
59857;DHT22;45733;52.668;6.860;2023-08-01T12:10:05;20.90;99.90
59857;DHT22;45733;52.668;6.860;2023-08-01T12:12:31;21.00;99.90
59857;DHT22;45733;52.668;6.860;2023-08-01T12:14:57;20.90;99.90
59857;DHT22;45733;52.668;6.860;2023-08-01T12:17:23;21.30;99.90
59857;DHT22;45733;52.668;6.860;2023-08-01T12:20:24;21.10;99.90
59857;DHT22;45733;52.668;6.860;2023-08-01T12:22:58;21.00;99.90
59857;DHT22;45733;52.668;6.860;2023-08-01T12:25:27;21.50;99.90
59857;DHT22;45733;52.668;6.860;2023-08-01T12:27:59;21.50;99.90
59857;DHT22;45733;52.668;6.860;2023-08-01T12:30:25;21.20;99.90
59857;DHT22;45733;52.668;6.860;2023-08-01T12:32:50;21.40;99.90
59857;DHT22;45733;52.668;6.860;2023-08-01T12:35:22;21.50;99.90
59857;DHT22;45733;52.668;6.860;2023-08-01T12:37:50;21.80;99.90
59857;DHT22;45733;52.668;6.860;2023-08-01T12:40:20;22.30;99.90
59857;DHT22;45733;52.668;6.860;2023-08-01T12:42:46;21.80;99.90
59857;DHT22;45733;52.668;6.860;2023-08-01T12:45:12;21.10;99.90
59857;DHT22;45733;52.668;6.860;2023-08-01T12:47:39;20.90;99.90
59857;DHT22;45733;52.668;6.860;2023-08-01T12:50:05;20.60;99.90
59857;DHT22;45733;52.668;6.860;2023-08-01T12:52:34;20.60;99.90
59857;DHT22;45733;52.668;6.860;2023-08-01T12:54:59;20.90;99.90
59857;DHT22;45733;52.668;6.860;2023-08-01T12:57:25;20.70;99.90
59857;DHT22;45733;52.668;6.860;2023-08-01T13:00:21;20.70;99.90
59857;DHT22;45733;52.668;6.860;2023-08-01T13:02:46;21.40;99.90
59857;DHT22;45733;52.668;6.860;2023-08-01T13:05:12;21.90;99.90
59857;DHT22;45733;52.668;6.860;2023-08-01T13:07:38;22.60;99.90
59857;DHT22;45733;52.668;6.860;2023-08-01T13:10:04;22.30;99.90
59857;DHT22;45733;52.668;6.860;2023-08-01T13:12:30;22.30;99.90
59857;DHT22;45733;52.668;6.860;2023-08-01T13:14:55;21.60;99.90
59857;DHT22;45733;52.668;6.860;2023-08-01T13:17:21;21.90;99.90
59857;DHT22;45733;52.668;6.860;2023-08-01T13:19:47;21.40;99.90
59857;DHT22;45733;52.668;6.860;2023-08-01T13:22:12;21.90;99.90
59857;DHT22;45733;52.668;6.860;2023-08-01T13:24:38;22.10;99.90
59857;DHT22;45733;52.668;6.860;2023-08-01T13:27:04;22.30;99.90
59857;DHT22;45733;52.668;6.860;2023-08-01T13:29:30;22.30;99.90
59857;DHT22;45733;52.668;6.860;2023-08-01T13:31:56;22.30;99.90
59857;DHT22;45733;52.668;6.860;2023-08-01T13:34:21;22.20;99.90
59857;DHT22;45733;52.668;6.860;2023-08-01T13:36:47;21.80;99.90
59857;DHT22;45733;52.668;6.860;2023-08-01T13:39:13;22.00;99.90
59857;DHT22;45733;52.668;6.860;2023-08-01T13:41:38;22.10;99.90
59857;DHT22;45733;52.668;6.860;2023-08-01T13:44:07;22.00;99.90
59857;DHT22;45733;52.668;6.860;2023-08-01T13:46:34;22.20;99.90
59857;DHT22;45733;52.668;6.860;2023-08-01T13:48:59;22.30;99.90
59857;DHT22;45733;52.668;6.860;2023-08-01T13:51:25;21.30;99.90
59857;DHT22;45733;52.668;6.860;2023-08-01T13:53:51;20.90;99.90
59857;DHT22;45733;52.668;6.860;2023-08-01T13:56:19;20.70;99.90
59857;DHT22;45733;52.668;6.860;2023-08-01T13:58:47;20.60;99.90
59857;DHT22;45733;52.668;6.860;2023-08-01T14:01:12;20.10;99.90
59857;DHT22;45733;52.668;6.860;2023-08-01T14:03:39;20.10;99.90
59857;DHT22;45733;52.668;6.860;2023-08-01T14:06:08;19.90;99.90
59857;DHT22;45733;52.668;6.860;2023-08-01T14:08:34;20.00;99.90
59857;DHT22;45733;52.668;6.860;2023-08-01T14:11:02;20.00;99.90
59857;DHT22;45733;52.668;6.860;2023-08-01T14:13:28;20.10;99.90
59857;DHT22;45733;52.668;6.860;2023-08-01T14:15:54;20.10;99.90
59857;DHT22;45733;52.668;6.860;2023-08-01T14:18:19;19.90;99.90
59857;DHT22;45733;52.668;6.860;2023-08-01T14:20:45;19.60;99.90
59857;DHT22;45733;52.668;6.860;2023-08-01T14:23:11;19.20;99.90
59857;DHT22;45733;52.668;6.860;2023-08-01T14:25:36;18.80;99.90
59857;DHT22;45733;52.668;6.860;2023-08-01T14:28:02;18.80;99.90
59857;DHT22;45733;52.668;6.860;2023-08-01T14:30:28;18.60;99.90
59857;DHT22;45733;52.668;6.860;2023-08-01T14:33:04;18.50;99.90
59857;DHT22;45733;52.668;6.860;2023-08-01T14:35:31;18.50;99.90
59857;DHT22;45733;52.668;6.860;2023-08-01T14:37:57;18.70;99.90
59857;DHT22;45733;52.668;6.860;2023-08-01T14:40:23;18.80;99.90
59857;DHT22;45733;52.668;6.860;2023-08-01T14:42:49;19.30;99.90
59857;DHT22;45733;52.668;6.860;2023-08-01T14:45:15;19.70;99.90
59857;DHT22;45733;52.668;6.860;2023-08-01T14:47:42;19.70;99.90
59857;DHT22;45733;52.668;6.860;2023-08-01T14:50:11;19.80;99.90
59857;DHT22;45733;52.668;6.860;2023-08-01T14:52:38;20.00;99.90
59857;DHT22;45733;52.668;6.860;2023-08-01T14:55:04;20.30;99.90
59857;DHT22;45733;52.668;6.860;2023-08-01T14:57:30;20.50;99.90
59857;DHT22;45733;52.668;6.860;2023-08-01T14:59:56;20.90;99.90
59857;DHT22;45733;52.668;6.860;2023-08-01T15:02:25;20.60;99.90
59857;DHT22;45733;52.668;6.860;2023-08-01T15:04:52;20.50;99.90
59857;DHT22;45733;52.668;6.860;2023-08-01T15:07:19;20.30;99.90
59857;DHT22;45733;52.668;6.860;2023-08-01T15:09:45;20.70;99.90
59857;DHT22;45733;52.668;6.860;2023-08-01T15:12:11;20.00;99.90
59857;DHT22;45733;52.668;6.860;2023-08-01T15:14:37;19.60;99.90
59857;DHT22;45733;52.668;6.860;2023-08-01T15:17:04;19.50;99.90
59857;DHT22;45733;52.668;6.860;2023-08-01T15:19:35;19.60;99.90
59857;DHT22;45733;52.668;6.860;2023-08-01T15:22:01;20.20;99.90
59857;DHT22;45733;52.668;6.860;2023-08-01T15:24:29;20.00;99.90
59857;DHT22;45733;52.668;6.860;2023-08-01T15:26:55;19.80;99.90
59857;DHT22;45733;52.668;6.860;2023-08-01T15:29:21;19.90;99.90
59857;DHT22;45733;52.668;6.860;2023-08-01T15:31:47;20.10;99.90
59857;DHT22;45733;52.668;6.860;2023-08-01T15:34:12;20.20;99.90
59857;DHT22;45733;52.668;6.860;2023-08-01T15:36:38;20.30;99.90
59857;DHT22;45733;52.668;6.860;2023-08-01T15:39:06;20.60;99.90
59857;DHT22;45733;52.668;6.860;2023-08-01T15:41:32;20.60;99.90
59857;DHT22;45733;52.668;6.860;2023-08-01T15:43:58;20.60;99.90
59857;DHT22;45733;52.668;6.860;2023-08-01T15:46:23;20.80;99.90
59857;DHT22;45733;52.668;6.860;2023-08-01T15:48:49;20.50;99.90
59857;DHT22;45733;52.668;6.860;2023-08-01T15:51:15;20.30;99.90
59857;DHT22;45733;52.668;6.860;2023-08-01T15:53:43;20.50;99.90
59857;DHT22;45733;52.668;6.860;2023-08-01T15:56:09;20.70;99.90
59857;DHT22;45733;52.668;6.860;2023-08-01T15:58:36;20.70;99.90